CSN8091 ZGGG-YSSY
Flight info
| Callsign | CSN8091 |
|---|---|
| Flight time | N/A |
| Altitude | 38000 |
| Route | VIBOS1 VIBOS R473 SIERA DCT MULET DCT SKATE DCT SABNO A583 ZAM A461 AMN R340 SURVO Y161 OVNOM H652 BOREE |
| Aircraft | A332/H-SDE3GHIJ2J3J5M1RVWXY/LB2D1 |
Departure
| Time | 2026-05-07 20:54 |
|---|---|
| Airport | Guangzhou Baiyun International Airport (ZGGG) |
Arrival
| Time | N/A |
|---|---|
| Airport | Sydney Kingsford Smith International Airport (YSSY) |
| Time | Latitude | Longitude | Altitude | Speed | Heading |
|---|---|---|---|---|---|
| 2026-05-07 20:52 | 23.38452 | 113.30575 | 51 ft | 12 kts | 197° |
| 2026-05-07 20:52 | 23.38299 | 113.30535 | 55 ft | 33 kts | 193° |
| 2026-05-07 20:52 | 23.38027 | 113.30461 | 54 ft | 46 kts | 194° |
| 2026-05-07 20:52 | 23.37822 | 113.30435 | 53 ft | 19 kts | 149° |
| 2026-05-07 20:53 | 23.37770 | 113.30589 | 51 ft | 10 kts | 78° |
| 2026-05-07 20:53 | 23.37816 | 113.30608 | 53 ft | 16 kts | 14° |
| 2026-05-07 20:53 | 23.38072 | 113.30673 | 51 ft | 72 kts | 13° |
| 2026-05-07 20:53 | 23.38806 | 113.30870 | 55 ft | 144 kts | 14° |
| 2026-05-07 20:54 | 23.39992 | 113.31188 | 214 ft | 201 kts | 14° |
| 2026-05-07 20:54 | 23.41485 | 113.31602 | 663 ft | 241 kts | 14° |
| 2026-05-07 20:54 | 23.43245 | 113.32109 | 1147 ft | 282 kts | 14° |
| 2026-05-07 20:54 | 23.45198 | 113.32694 | 1789 ft | 290 kts | 15° |
| 2026-05-07 20:55 | 23.47079 | 113.33309 | 2714 ft | 275 kts | 15° |
| 2026-05-07 20:55 | 23.48883 | 113.33877 | 3713 ft | 265 kts | 13° |
| 2026-05-07 20:55 | 23.50635 | 113.34405 | 4719 ft | 259 kts | 14° |
| 2026-05-07 20:55 | 23.52334 | 113.35168 | 5318 ft | 272 kts | 29° |
| 2026-05-07 20:56 | 23.53750 | 113.36566 | 5920 ft | 281 kts | 52° |
| 2026-05-07 20:56 | 23.54818 | 113.38372 | 6647 ft | 286 kts | 63° |
| 2026-05-07 20:56 | 23.55349 | 113.40467 | 7334 ft | 292 kts | 87° |
| 2026-05-07 20:56 | 23.54942 | 113.42623 | 8028 ft | 295 kts | 118° |
| 2026-05-07 20:57 | 23.53732 | 113.44436 | 8716 ft | 299 kts | 134° |
| 2026-05-07 20:57 | 23.52201 | 113.45995 | 9409 ft | 303 kts | 142° |
| 2026-05-07 20:57 | 23.50523 | 113.47402 | 10120 ft | 307 kts | 146° |
| 2026-05-07 20:57 | 23.48771 | 113.48772 | 10495 ft | 323 kts | 146° |
| 2026-05-07 20:58 | 23.46891 | 113.50240 | 11162 ft | 342 kts | 144° |
| 2026-05-07 20:58 | 23.44956 | 113.51798 | 11267 ft | 351 kts | 145° |
| 2026-05-07 20:58 | 23.42978 | 113.53438 | 11720 ft | 361 kts | 144° |
| 2026-05-07 20:58 | 23.40983 | 113.55133 | 12318 ft | 367 kts | 143° |
| 2026-05-07 20:59 | 23.38971 | 113.56864 | 12967 ft | 370 kts | 143° |
| 2026-05-07 20:59 | 23.36948 | 113.58617 | 13636 ft | 374 kts | 143° |
| 2026-05-07 20:59 | 23.34906 | 113.60387 | 14210 ft | 377 kts | 143° |
| 2026-05-07 20:59 | 23.32837 | 113.62179 | 14725 ft | 382 kts | 143° |
| 2026-05-07 21:00 | 23.30741 | 113.63991 | 15250 ft | 387 kts | 143° |
| 2026-05-07 21:00 | 23.28622 | 113.65821 | 15774 ft | 391 kts | 143° |
| 2026-05-07 21:00 | 23.26476 | 113.67670 | 16289 ft | 396 kts | 143° |
| 2026-05-07 21:00 | 23.24309 | 113.69536 | 16816 ft | 400 kts | 143° |
| 2026-05-07 21:01 | 23.22116 | 113.71423 | 17326 ft | 404 kts | 143° |
| 2026-05-07 21:01 | 23.19901 | 113.73327 | 17851 ft | 408 kts | 143° |
| 2026-05-07 21:01 | 23.17662 | 113.75252 | 18340 ft | 412 kts | 143° |
| 2026-05-07 21:01 | 23.15397 | 113.77196 | 18736 ft | 417 kts | 143° |
| 2026-05-07 21:02 | 23.13115 | 113.79156 | 19159 ft | 420 kts | 143° |
| 2026-05-07 21:02 | 23.10818 | 113.81128 | 19702 ft | 420 kts | 143° |
| 2026-05-07 21:02 | 23.08525 | 113.83095 | 20169 ft | 422 kts | 143° |
| 2026-05-07 21:02 | 23.06211 | 113.85080 | 20567 ft | 426 kts | 143° |
| 2026-05-07 21:03 | 23.03876 | 113.87083 | 20969 ft | 430 kts | 143° |
| 2026-05-07 21:03 | 23.01516 | 113.89107 | 21379 ft | 433 kts | 143° |
| 2026-05-07 21:03 | 22.99149 | 113.91135 | 21790 ft | 437 kts | 143° |
| 2026-05-07 21:03 | 22.96757 | 113.93184 | 22200 ft | 440 kts | 143° |
| 2026-05-07 21:04 | 22.94348 | 113.95245 | 22601 ft | 443 kts | 143° |
| 2026-05-07 21:04 | 22.91918 | 113.97324 | 23008 ft | 446 kts | 143° |
| 2026-05-07 21:04 | 22.89475 | 113.99413 | 23402 ft | 450 kts | 143° |
| 2026-05-07 21:04 | 22.87007 | 114.01522 | 23753 ft | 453 kts | 143° |
| 2026-05-07 21:05 | 22.84524 | 114.03644 | 24098 ft | 455 kts | 143° |
| 2026-05-07 21:05 | 22.82031 | 114.05772 | 24439 ft | 458 kts | 143° |
| 2026-05-07 21:05 | 22.79526 | 114.07910 | 24777 ft | 460 kts | 143° |
| 2026-05-07 21:05 | 22.77858 | 114.09333 | 24990 ft | 462 kts | 143° |
| 2026-05-07 21:06 | 22.75334 | 114.11485 | 25401 ft | 462 kts | 143° |
| 2026-05-07 21:06 | 22.72803 | 114.13643 | 25747 ft | 463 kts | 143° |
| 2026-05-07 21:06 | 22.69434 | 114.16513 | 26183 ft | 467 kts | 143° |
| 2026-05-07 21:06 | 22.66874 | 114.18692 | 26502 ft | 469 kts | 143° |
| 2026-05-07 21:07 | 22.64303 | 114.20880 | 26840 ft | 471 kts | 143° |
| 2026-05-07 21:07 | 22.62559 | 114.22364 | 27061 ft | 473 kts | 143° |
| 2026-05-07 21:07 | 22.59965 | 114.24570 | 27384 ft | 476 kts | 143° |
| 2026-05-07 21:07 | 22.57357 | 114.26785 | 27704 ft | 478 kts | 143° |
| 2026-05-07 21:08 | 22.54737 | 114.29011 | 28015 ft | 480 kts | 143° |
| 2026-05-07 21:08 | 22.52106 | 114.31245 | 28327 ft | 482 kts | 143° |
| 2026-05-07 21:08 | 22.49462 | 114.33488 | 28638 ft | 484 kts | 143° |
| 2026-05-07 21:08 | 22.46806 | 114.35740 | 28938 ft | 487 kts | 143° |
| 2026-05-07 21:09 | 22.44131 | 114.38008 | 29240 ft | 489 kts | 143° |
| 2026-05-07 21:09 | 22.41453 | 114.40278 | 29606 ft | 489 kts | 143° |
| 2026-05-07 21:09 | 22.38775 | 114.42546 | 29973 ft | 490 kts | 143° |
| 2026-05-07 21:09 | 22.36088 | 114.44820 | 30208 ft | 492 kts | 143° |
| 2026-05-07 21:10 | 22.33422 | 114.47075 | 30420 ft | 494 kts | 143° |
| 2026-05-07 21:10 | 22.30707 | 114.49370 | 30662 ft | 496 kts | 143° |
| 2026-05-07 21:10 | 22.27978 | 114.51677 | 30907 ft | 498 kts | 143° |
| 2026-05-07 21:10 | 22.25247 | 114.53984 | 31138 ft | 500 kts | 143° |
| 2026-05-07 21:11 | 22.22501 | 114.56302 | 31378 ft | 502 kts | 143° |
| 2026-05-07 21:11 | 22.19750 | 114.58623 | 31608 ft | 503 kts | 143° |
| 2026-05-07 21:11 | 22.14218 | 114.63288 | 32197 ft | 504 kts | 143° |
| 2026-05-07 21:12 | 22.11459 | 114.65613 | 32564 ft | 503 kts | 143° |
| 2026-05-07 21:12 | 22.08708 | 114.67930 | 32892 ft | 501 kts | 143° |
| 2026-05-07 21:12 | 22.05968 | 114.70237 | 33299 ft | 499 kts | 143° |
| 2026-05-07 21:12 | 22.03228 | 114.72542 | 33645 ft | 498 kts | 143° |
| 2026-05-07 21:13 | 22.00495 | 114.74841 | 33935 ft | 498 kts | 143° |
| 2026-05-07 21:13 | 21.97764 | 114.77135 | 34191 ft | 498 kts | 143° |
| 2026-05-07 21:13 | 21.95024 | 114.79437 | 34400 ft | 499 kts | 143° |
| 2026-05-07 21:13 | 21.92281 | 114.81740 | 34626 ft | 500 kts | 143° |
| 2026-05-07 21:14 | 21.89536 | 114.84043 | 34860 ft | 501 kts | 143° |
| 2026-05-07 21:14 | 21.86784 | 114.86351 | 35070 ft | 502 kts | 143° |
| 2026-05-07 21:14 | 21.84031 | 114.88659 | 35289 ft | 502 kts | 143° |
| 2026-05-07 21:14 | 21.81268 | 114.90974 | 35515 ft | 503 kts | 143° |
| 2026-05-07 21:15 | 21.78505 | 114.93288 | 35732 ft | 503 kts | 143° |
| 2026-05-07 21:15 | 21.75741 | 114.95602 | 35946 ft | 504 kts | 143° |
| 2026-05-07 21:15 | 21.72975 | 114.97916 | 36174 ft | 504 kts | 143° |
| 2026-05-07 21:15 | 21.70205 | 115.00232 | 36384 ft | 504 kts | 143° |
| 2026-05-07 21:16 | 21.67437 | 115.02546 | 36627 ft | 504 kts | 143° |
| 2026-05-07 21:16 | 21.64662 | 115.04864 | 36862 ft | 504 kts | 143° |
| 2026-05-07 21:16 | 21.61900 | 115.07171 | 37064 ft | 505 kts | 143° |
| 2026-05-07 21:16 | 21.59126 | 115.09486 | 37262 ft | 505 kts | 143° |
| 2026-05-07 21:17 | 21.56339 | 115.11790 | 37458 ft | 505 kts | 146° |
| 2026-05-07 21:17 | 21.53350 | 115.13761 | 37647 ft | 504 kts | 155° |
| 2026-05-07 21:17 | 21.50126 | 115.15176 | 37819 ft | 501 kts | 164° |
| 2026-05-07 21:17 | 21.46789 | 115.16291 | 37929 ft | 502 kts | 166° |
| 2026-05-07 21:18 | 21.40034 | 115.18228 | 37930 ft | 501 kts | 168° |
| 2026-05-07 21:18 | 21.33273 | 115.20050 | 37931 ft | 500 kts | 168° |
| 2026-05-07 21:19 | 21.26530 | 115.21891 | 37933 ft | 500 kts | 168° |
| 2026-05-07 21:19 | 21.19794 | 115.23758 | 37929 ft | 500 kts | 168° |
| 2026-05-07 21:20 | 21.13056 | 115.25635 | 37930 ft | 500 kts | 168° |
| 2026-05-07 21:20 | 21.06323 | 115.27510 | 37930 ft | 500 kts | 167° |
| 2026-05-07 21:21 | 20.99590 | 115.29382 | 37928 ft | 499 kts | 167° |
| 2026-05-07 21:21 | 20.92864 | 115.31250 | 37927 ft | 499 kts | 167° |
| 2026-05-07 21:22 | 20.86136 | 115.33116 | 37932 ft | 500 kts | 167° |
| 2026-05-07 21:22 | 20.79414 | 115.34980 | 37929 ft | 499 kts | 167° |
| 2026-05-07 21:23 | 20.72698 | 115.36838 | 37926 ft | 498 kts | 167° |
| 2026-05-07 21:23 | 20.57104 | 115.41149 | 37922 ft | 499 kts | 167° |
| 2026-05-07 21:24 | 20.03931 | 115.55782 | 37918 ft | 498 kts | 167° |
| 2026-05-07 21:24 | 19.50790 | 115.70307 | 37910 ft | 493 kts | 167° |
| 2026-05-07 21:25 | 18.97629 | 115.84755 | 37904 ft | 492 kts | 165° |
| 2026-05-07 21:25 | 18.75436 | 116.00564 | 37903 ft | 487 kts | 130° |
| 2026-05-07 21:25 | 18.59651 | 116.14314 | 37899 ft | 487 kts | 166° |
| 2026-05-07 21:26 | 18.46208 | 116.17713 | 37905 ft | 488 kts | 145° |
| 2026-05-07 21:26 | 18.34722 | 116.25202 | 37898 ft | 488 kts | 154° |
| 2026-05-07 21:27 | 18.22460 | 116.31400 | 37895 ft | 489 kts | 154° |
| 2026-05-07 21:27 | 18.10237 | 116.37636 | 37898 ft | 487 kts | 154° |
| 2026-05-07 21:28 | 18.01463 | 116.42123 | 37896 ft | 486 kts | 154° |
| 2026-05-07 21:28 | 17.95376 | 116.45231 | 37895 ft | 487 kts | 154° |
| 2026-05-07 21:29 | 17.89284 | 116.48338 | 37893 ft | 487 kts | 154° |
| 2026-05-07 21:29 | 17.83193 | 116.51443 | 37893 ft | 487 kts | 154° |
| 2026-05-07 21:30 | 17.77099 | 116.54547 | 37898 ft | 487 kts | 154° |
| 2026-05-07 21:30 | 17.71008 | 116.57647 | 37895 ft | 487 kts | 154° |
| 2026-05-07 21:31 | 17.64915 | 116.60746 | 37890 ft | 486 kts | 154° |
| 2026-05-07 21:31 | 17.58830 | 116.63839 | 37891 ft | 486 kts | 154° |